Time;durP1;ratioP1;P1;durP2;ratioP2;P2;SDS_P1;SDS_P2;PMS_P1;PMS_P2;Temp;Humidity;BMP_temperature;BMP_pressure;BME280_temperature;BME280_humidity;BME280_pressure;Samples;Min_cycle;Max_cycle;Signal;HPM_P1;HPM_P2
2022/08/04 00:00:01;;;;;;;27.67;26.05;;;28.60;47.30;;;;;;5051317;28;20025;-79
2022/08/04 00:02:49;;;;;;;30.42;28.85;;;28.60;47.70;;;;;;5050223;28;20044;-79
2022/08/04 00:05:29;;;;;;;32.10;30.02;;;28.40;48.50;;;;;;5036627;28;20033;-79
2022/08/04 00:08:25;;;;;;;30.50;28.40;;;28.40;48.40;;;;;;5050712;28;20052;-79
2022/08/04 00:10:54;;;;;;;31.05;29.33;;;28.30;49.20;;;;;;5047029;28;20041;-79
2022/08/04 00:13:24;;;;;;;32.25;30.17;;;28.20;49.40;;;;;;5050924;28;20104;-79
2022/08/04 00:16:07;;;;;;;30.35;28.40;;;28.20;49.30;;;;;;5033603;28;20032;-79
2022/08/04 00:18:39;;;;;;;32.03;30.13;;;28.40;49.40;;;;;;5050809;28;20033;-79
2022/08/04 00:21:05;;;;;;;32.05;30.02;;;28.50;49.40;;;;;;5033895;28;20033;-79
2022/08/04 00:23:35;;;;;;;32.80;30.83;;;28.40;49.80;;;;;;5034090;28;20052;-79
2022/08/04 00:26:01;;;;;;;30.85;28.85;;;28.30;50.00;;;;;;5050685;28;20545;-79
2022/08/04 00:28:28;;;;;;;30.05;27.98;;;28.40;50.10;;;;;;5050675;28;20029;-78
2022/08/04 00:30:54;;;;;;;31.33;29.33;;;28.40;50.40;;;;;;5033317;28;20029;-79
2022/08/04 00:33:20;;;;;;;32.80;30.75;;;28.30;50.30;;;;;;5033949;28;20431;-79
2022/08/04 00:35:50;;;;;;;29.40;27.17;;;28.40;50.30;;;;;;5030224;28;20041;-79
2022/08/04 00:38:16;;;;;;;30.30;28.67;;;28.40;50.50;;;;;;5015360;28;20046;-79
2022/08/04 00:41:03;;;;;;;29.10;27.20;;;28.30;50.80;;;;;;5033509;28;20052;-79
2022/08/04 00:43:31;;;;;;;31.38;29.63;;;28.10;51.70;;;;;;5047117;28;20037;-78
2022/08/04 00:46:16;;;;;;;30.20;28.42;;;28.00;51.60;;;;;;5023786;28;20400;-79
2022/08/04 00:49:11;;;;;;;30.35;28.35;;;27.70;53.00;;;;;;5051326;28;20049;-79
2022/08/04 00:51:40;;;;;;;36.20;33.75;;;27.40;53.90;;;;;;5048027;28;20062;-79
2022/08/04 00:54:09;;;;;;;34.65;32.35;;;27.00;54.40;;;;;;5051305;28;20021;-78
2022/08/04 00:57:02;;;;;;;36.33;34.42;;;27.10;54.70;;;;;;5051279;28;20033;-78
2022/08/04 00:59:36;;;;;;;26.33;24.73;;;26.90;55.00;;;;;;5049201;28;20483;-79
2022/08/04 01:02:27;;;;;;;24.20;22.80;;;26.90;55.30;;;;;;5049439;28;20048;-79
2022/08/04 01:05:18;;;;;;;27.63;25.75;;;26.80;55.60;;;;;;5035188;28;20037;-78
2022/08/04 01:07:50;;;;;;;28.60;27.00;;;26.60;56.30;;;;;;5034260;28;20515;-78
2022/08/04 01:10:25;;;;;;;33.35;31.17;;;26.30;57.20;;;;;;5049701;28;20032;-78
2022/08/04 01:13:24;;;;;;;33.75;31.63;;;26.10;57.80;;;;;;5049737;28;20037;-78
2022/08/04 01:16:01;;;;;;;36.72;34.45;;;26.10;57.80;;;;;;5050266;28;20029;-79
2022/08/04 01:18:49;;;;;;;35.67;33.55;;;26.20;57.20;;;;;;5048910;28;20391;-79
2022/08/04 01:21:21;;;;;;;34.67;32.17;;;26.40;57.00;;;;;;5032855;28;20048;-78
2022/08/04 01:24:25;;;;;;;31.00;29.10;;;26.50;56.60;;;;;;5049341;28;20060;-78
2022/08/04 01:27:10;;;;;;;32.08;30.02;;;26.50;57.40;;;;;;5049278;28;20037;-78
2022/08/04 01:29:42;;;;;;;34.00;31.73;;;26.40;57.50;;;;;;5049444;28;20025;-78
2022/08/04 01:32:19;;;;;;;31.30;29.40;;;26.40;57.60;;;;;;5049008;28;20033;-78
2022/08/04 01:34:55;;;;;;;36.40;33.70;;;26.30;57.80;;;;;;5031790;28;20427;-78
2022/08/04 01:37:39;;;;;;;36.90;34.50;;;26.20;58.60;;;;;;5049374;28;20025;-78
2022/08/04 01:40:06;;;;;;;33.22;31.42;;;26.20;59.50;;;;;;5065642;28;20048;-78
2022/08/04 01:42:34;;;;;;;37.90;35.40;;;26.00;60.00;;;;;;5033091;28;20495;-78
2022/08/04 01:45:04;;;;;;;35.42;33.28;;;25.60;61.00;;;;;;5032084;28;20044;-78
2022/08/04 01:47:30;;;;;;;41.58;39.13;;;25.50;61.90;;;;;;5015947;28;20053;-79
2022/08/04 01:50:10;;;;;;;43.67;41.38;;;25.40;62.90;;;;;;5015846;28;20044;-78
2022/08/04 01:52:37;;;;;;;40.63;38.08;;;25.30;63.10;;;;;;5032573;28;20052;-78
2022/08/04 01:55:05;;;;;;;41.15;38.70;;;25.30;63.10;;;;;;5016316;28;20423;-78
2022/08/04 01:57:50;;;;;;;46.50;43.78;;;25.20;62.80;;;;;;5032827;28;20029;-78
2022/08/04 02:00:19;;;;;;;47.75;45.03;;;25.30;62.80;;;;;;5031894;28;20037;-78
2022/08/04 02:02:46;;;;;;;50.58;47.75;;;25.60;61.50;;;;;;5032239;28;20049;-78
2022/08/04 02:05:14;;;;;;;42.20;39.65;;;25.90;60.80;;;;;;5032564;28;20048;-78
2022/08/04 02:07:49;;;;;;;48.33;45.00;;;25.90;60.90;;;;;;5032842;28;20037;-78
2022/08/04 02:10:34;;;;;;;58.47;55.08;;;25.40;63.10;;;;;;5032608;28;20044;-78
2022/08/04 02:13:16;;;;;;;56.05;53.05;;;25.30;64.30;;;;;;5052923;28;20047;-78
2022/08/04 02:15:56;;;;;;;59.97;56.58;;;25.20;64.30;;;;;;5036608;28;20033;-78
2022/08/04 02:18:29;;;;;;;47.90;45.47;;;25.40;63.40;;;;;;5052693;28;20032;-78
2022/08/04 02:20:58;;;;;;;45.08;42.38;;;25.70;62.70;;;;;;5035856;28;20052;-78
2022/08/04 02:23:35;;;;;;;42.33;39.80;;;25.50;64.00;;;;;;5036434;28;20037;-78
2022/08/04 02:26:04;;;;;;;52.80;49.55;;;25.40;64.20;;;;;;5052865;28;20021;-78
2022/08/04 02:29:00;;;;;;;55.00;51.20;;;25.30;64.50;;;;;;5053106;28;20040;-78
2022/08/04 02:31:32;;;;;;;52.08;48.67;;;25.50;63.80;;;;;;5037583;28;20029;-78
2022/08/04 02:34:09;;;;;;;50.72;47.63;;;25.80;63.00;;;;;;5052259;28;20052;-78
2022/08/04 02:36:37;;;;;;;53.00;49.80;;;25.80;63.00;;;;;;5032774;28;20508;-78
2022/08/04 02:39:05;;;;;;;52.20;49.25;;;25.80;62.70;;;;;;5040517;28;20037;-78
2022/08/04 02:41:31;;;;;;;52.22;49.30;;;25.90;62.70;;;;;;5052473;28;20434;-78
2022/08/04 02:44:02;;;;;;;49.67;46.80;;;26.00;62.20;;;;;;5028429;28;20056;-78
2022/08/04 02:46:30;;;;;;;48.75;46.03;;;26.10;61.80;;;;;;5013993;28;20411;-78
2022/08/04 02:48:56;;;;;;;51.17;48.08;;;26.30;61.40;;;;;;5035532;28;20045;-78
2022/08/04 02:51:31;;;;;;;46.85;44.00;;;26.40;60.90;;;;;;5052316;28;20036;-78
2022/08/04 02:53:57;;;;;;;58.20;54.67;;;26.40;62.20;;;;;;5035677;28;20396;-78
2022/08/04 02:56:25;;;;;;;55.28;52.30;;;26.20;62.90;;;;;;5035503;28;20048;-78
2022/08/04 02:59:02;;;;;;;69.43;65.88;;;26.00;63.70;;;;;;5035559;28;20043;-78
2022/08/04 03:01:28;;;;;;;65.38;61.47;;;25.70;64.80;;;;;;5051630;28;20044;-78
2022/08/04 03:04:12;;;;;;;64.88;61.35;;;25.50;65.20;;;;;;5035554;28;20045;-78
2022/08/04 03:07:15;;;;;;;67.10;62.95;;;25.50;65.50;;;;;;5053224;28;20467;-78
2022/08/04 03:10:01;;;;;;;51.67;48.30;;;25.40;65.60;;;;;;5051996;28;20041;-78
2022/08/04 03:13:10;;;;;;;57.75;54.25;;;25.20;66.40;;;;;;5052336;28;20037;-78
2022/08/04 03:16:01;;;;;;;60.10;56.70;;;25.30;66.40;;;;;;5034271;28;20498;-78
2022/08/04 03:18:36;;;;;;;;;;;25.30;65.80;;;;;;5053900;28;20025;-78
2022/08/04 03:21:38;;;;;;;63.40;59.78;;;25.30;66.40;;;;;;5051972;28;19924;-78
2022/08/04 03:24:42;;;;;;;80.03;75.60;;;25.30;66.30;;;;;;5029634;28;20072;-78
2022/08/04 03:27:27;;;;;;;91.20;86.60;;;25.10;67.40;;;;;;5014075;28;20041;-78
2022/08/04 03:30:05;;;;;;;76.45;72.20;;;24.80;68.70;;;;;;5030347;28;20033;-78
2022/08/04 03:33:08;;;;;;;50.58;47.83;;;24.70;69.00;;;;;;5029913;28;20056;-78
2022/08/04 03:35:53;;;;;;;53.13;50.10;;;24.60;69.10;;;;;;5000240;28;20177;-78
2022/08/04 03:38:30;;;;;;;53.10;50.00;;;24.60;69.30;;;;;;5012023;28;20061;-78
2022/08/04 03:41:05;;;;;;;51.30;48.45;;;24.40;69.50;;;;;;5030456;28;20042;-78
2022/08/04 03:43:53;;;;;;;52.47;49.42;;;24.40;69.60;;;;;;5029968;28;20381;-78
2022/08/04 03:46:27;;;;;;;47.25;44.45;;;24.50;69.20;;;;;;5009594;28;20053;-78
2022/08/04 03:49:12;;;;;;;47.63;44.10;;;24.50;69.50;;;;;;5010517;28;20544;-78
2022/08/04 03:55:16;;;;;;;60.40;56.78;;;24.40;69.10;;;;;;5013337;28;20415;-78
2022/08/04 03:58:00;;;;;;;73.90;70.03;;;24.50;68.90;;;;;;4990652;28;20038;-78
2022/08/04 04:00:30;;;;;;;81.00;76.70;;;24.30;70.20;;;;;;5015776;28;20303;-78
2022/08/04 04:03:53;;;;;;;83.43;79.13;;;24.20;70.30;;;;;;5014698;28;20037;-78
2022/08/04 04:06:28;;;;;;;77.18;72.93;;;24.20;70.30;;;;;;4993402;28;20046;-78
2022/08/04 04:09:18;;;;;;;73.72;69.80;;;24.30;70.00;;;;;;4993541;28;20038;-78
2022/08/04 04:11:56;;;;;;;79.90;75.65;;;24.30;70.20;;;;;;5010112;28;20042;-78
2022/08/04 04:14:46;;;;;;;83.40;78.88;;;24.10;70.60;;;;;;4993323;28;20037;-78
2022/08/04 04:17:21;;;;;;;75.72;71.57;;;24.10;70.60;;;;;;4993108;28;20041;-78
2022/08/04 04:20:22;;;;;;;75.90;71.93;;;24.00;70.80;;;;;;5009847;28;20038;-78
2022/08/04 04:23:27;;;;;;;85.50;80.82;;;24.00;71.10;;;;;;4988622;28;20058;-78
2022/08/04 04:26:29;;;;;;;89.68;84.90;;;24.00;71.10;;;;;;5009021;28;20038;-78
2022/08/04 04:29:27;;;;;;;81.07;76.75;;;23.90;71.10;;;;;;4992768;28;20053;-78
2022/08/04 04:32:13;;;;;;;82.63;78.10;;;23.90;71.40;;;;;;4992830;28;20061;-78
2022/08/04 04:34:42;;;;;;;87.45;82.53;;;23.80;71.50;;;;;;5015086;28;20137;-78
2022/08/04 04:37:37;;;;;;;87.45;82.82;;;23.70;72.20;;;;;;5028903;28;20044;-78
2022/08/04 04:40:12;;;;;;;78.32;74.22;;;23.50;72.60;;;;;;5012970;28;20046;-78
2022/08/04 04:42:50;;;;;;;83.97;78.55;;;23.60;72.30;;;;;;5031272;28;20378;-78
2022/08/04 04:45:30;;;;;;;81.13;76.75;;;23.70;72.10;;;;;;5048681;28;20032;-78
2022/08/04 04:48:32;;;;;;;86.20;81.72;;;23.90;71.20;;;;;;5033738;28;20032;-78
2022/08/04 04:51:09;;;;;;;86.05;81.32;;;24.00;70.90;;;;;;5019421;28;20025;-78
2022/08/04 04:53:57;;;;;;;92.13;87.38;;;23.90;71.20;;;;;;5049808;28;20040;-78
2022/08/04 04:56:40;;;;;;;97.35;92.05;;;23.90;71.30;;;;;;5050862;28;20033;-78
2022/08/04 04:59:09;;;;;;;121.80;115.35;;;23.90;71.20;;;;;;5051289;28;20025;-78
2022/08/04 05:01:56;;;;;;;90.47;85.78;;;23.80;71.30;;;;;;5049349;28;20066;-78
2022/08/04 05:04:53;;;;;;;100.32;95.22;;;23.60;72.30;;;;;;5034910;28;20041;-78
2022/08/04 05:07:51;;;;;;;98.95;93.95;;;23.40;73.10;;;;;;5050846;28;20029;-78
2022/08/04 05:11:02;;;;;;;81.05;76.80;;;23.20;73.90;;;;;;5034820;28;20045;-78
2022/08/04 05:13:32;;;;;;;96.87;91.60;;;23.20;73.80;;;;;;4992666;28;20471;-78
2022/08/04 05:16:16;;;;;;;95.77;90.50;;;23.20;73.50;;;;;;5008558;28;20034;-78
2022/08/04 05:18:44;;;;;;;89.18;84.65;;;23.20;73.40;;;;;;4990400;28;20503;-78
2022/08/04 05:21:31;;;;;;;87.68;83.07;;;23.20;73.30;;;;;;4992109;28;20041;-78
2022/08/04 05:23:59;;;;;;;77.65;73.30;;;23.00;73.60;;;;;;5008617;28;20053;-78
2022/08/04 05:26:29;;;;;;;78.93;74.80;;;22.80;75.20;;;;;;5008212;28;20459;-78
2022/08/04 05:28:56;;;;;;;78.63;74.32;;;22.80;74.50;;;;;;5008270;28;20049;-78
2022/08/04 05:31:24;;;;;;;84.60;80.05;;;22.80;74.50;;;;;;5007820;28;20436;-78
2022/08/04 05:33:59;;;;;;;70.85;67.15;;;22.70;75.20;;;;;;4992090;28;20503;-78
2022/08/04 05:36:46;;;;;;;77.88;73.35;;;22.80;74.80;;;;;;4971798;28;20046;-78
2022/08/04 05:39:23;;;;;;;66.78;63.15;;;22.70;75.00;;;;;;4994520;28;20065;-78
2022/08/04 05:41:50;;;;;;;86.35;81.95;;;22.60;75.30;;;;;;4988353;28;20046;-78
2022/08/04 05:44:16;;;;;;;87.88;83.45;;;22.70;75.00;;;;;;5022891;28;20045;-78
2022/08/04 05:46:46;;;;;;;86.25;81.28;;;22.70;75.10;;;;;;5031754;28;20411;-78
2022/08/04 05:49:13;;;;;;;76.50;72.50;;;22.70;75.00;;;;;;5050627;28;20040;-78
2022/08/04 05:51:39;;;;;;;71.25;67.13;;;22.70;75.00;;;;;;5032392;28;20646;-78
2022/08/04 05:54:05;;;;;;;70.57;66.60;;;22.70;74.80;;;;;;5032361;28;20025;-78
2022/08/04 05:56:32;;;;;;;79.70;75.35;;;22.60;75.30;;;;;;5032730;28;20483;-78
2022/08/04 05:58:59;;;;;;;84.20;79.63;;;22.60;74.50;;;;;;5016235;28;20033;-79
2022/08/04 06:01:25;;;;;;;77.40;73.25;;;22.60;74.80;;;;;;5031783;28;20037;-78
2022/08/04 06:03:51;;;;;;;93.95;88.32;;;22.50;75.60;;;;;;5032705;28;20475;-78
2022/08/04 06:06:17;;;;;;;66.15;62.28;;;22.50;75.30;;;;;;5032491;28;20033;-78
2022/08/04 06:08:43;;;;;;;67.72;63.58;;;22.60;75.10;;;;;;5031905;28;20049;-78
2022/08/04 06:11:09;;;;;;;59.85;56.58;;;22.50;75.20;;;;;;5032564;28;20040;-78
2022/08/04 06:13:47;;;;;;;65.63;62.05;;;22.40;76.00;;;;;;5032529;28;20081;-78
2022/08/04 06:16:14;;;;;;;68.28;64.53;;;22.40;76.40;;;;;;5048469;28;20029;-78
2022/08/04 06:18:40;;;;;;;79.38;74.85;;;22.40;76.10;;;;;;5032595;28;20033;-78
2022/08/04 06:21:06;;;;;;;52.35;49.35;;;22.60;75.30;;;;;;5016111;28;20391;-78
2022/08/04 06:23:32;;;;;;;65.65;62.00;;;22.80;74.70;;;;;;5015845;28;20045;-78
2022/08/04 06:25:59;;;;;;;76.78;72.65;;;22.90;73.90;;;;;;5032319;28;20024;-78
2022/08/04 06:28:26;;;;;;;86.40;80.75;;;22.80;74.00;;;;;;5032356;28;20037;-78
2022/08/04 06:30:54;;;;;;;61.65;58.15;;;22.70;74.40;;;;;;5029997;28;20021;-78
2022/08/04 06:33:25;;;;;;;69.07;64.95;;;22.60;74.90;;;;;;5032461;28;20029;-78
2022/08/04 06:35:54;;;;;;;66.95;63.25;;;22.80;74.40;;;;;;5048863;28;20025;-78
2022/08/04 06:38:21;;;;;;;83.30;78.97;;;23.00;73.70;;;;;;5046491;28;20059;-78
2022/08/04 06:40:47;;;;;;;78.22;73.70;;;23.00;73.40;;;;;;5028783;28;20384;-78
2022/08/04 06:43:13;;;;;;;78.00;73.72;;;23.00;73.40;;;;;;4997645;28;20041;-78
2022/08/04 06:45:40;;;;;;;86.70;81.88;;;23.10;72.90;;;;;;5031401;28;20130;-78
2022/08/04 06:48:06;;;;;;;87.85;83.28;;;23.20;72.40;;;;;;5032146;28;20044;-78
2022/08/04 06:50:34;;;;;;;85.25;80.53;;;23.20;72.30;;;;;;5015468;28;20040;-78
2022/08/04 06:53:00;;;;;;;92.45;87.43;;;23.20;72.40;;;;;;5031936;28;20058;-78
2022/08/04 06:55:26;;;;;;;94.45;89.63;;;23.10;72.90;;;;;;5031899;28;20029;-78
2022/08/04 06:57:53;;;;;;;85.60;81.28;;;23.00;73.10;;;;;;5032685;28;20029;-78
2022/08/04 07:00:19;;;;;;;90.38;85.40;;;23.00;72.90;;;;;;5018771;28;20044;-79
2022/08/04 07:02:48;;;;;;;96.57;91.60;;;23.10;72.70;;;;;;5035637;28;20040;-79
2022/08/04 07:05:14;;;;;;;94.30;89.20;;;23.00;73.00;;;;;;5035884;28;20040;-79
2022/08/04 07:07:40;;;;;;;94.28;89.35;;;23.10;72.60;;;;;;5035159;28;20052;-79
2022/08/04 07:10:07;;;;;;;82.05;77.50;;;23.10;72.60;;;;;;5035274;28;20458;-78
2022/08/04 07:12:33;;;;;;;91.60;86.40;;;23.10;72.50;;;;;;5035762;28;20041;-80
2022/08/04 07:14:59;;;;;;;84.28;80.00;;;23.10;72.70;;;;;;5035560;28;20036;-80
2022/08/04 07:17:25;;;;;;;86.80;82.10;;;23.10;72.80;;;;;;5051723;28;20029;-80
2022/08/04 07:19:51;;;;;;;82.38;78.00;;;23.10;72.70;;;;;;5035398;28;20025;-80
2022/08/04 07:22:18;;;;;;;76.30;72.15;;;23.00;73.40;;;;;;5018479;28;20067;-80
2022/08/04 07:24:44;;;;;;;76.57;72.40;;;23.10;72.50;;;;;;5035323;28;20048;-80
2022/08/04 07:27:10;;;;;;;78.03;73.93;;;23.30;72.30;;;;;;5035112;28;20024;-80
2022/08/04 07:29:37;;;;;;;79.45;74.82;;;23.50;71.70;;;;;;5051996;28;20411;-80
2022/08/04 07:32:04;;;;;;;83.95;79.47;;;23.60;70.80;;;;;;5035000;28;20048;-80
2022/08/04 07:34:30;;;;;;;78.25;74.05;;;23.50;70.90;;;;;;5014989;28;20480;-80
2022/08/04 07:36:57;;;;;;;80.32;75.72;;;23.50;71.20;;;;;;5014940;28;20033;-79
2022/08/04 07:39:25;;;;;;;80.95;76.75;;;23.60;71.80;;;;;;5025574;28;20494;-80
2022/08/04 07:41:52;;;;;;;52.60;49.75;;;23.70;70.80;;;;;;5035135;28;20475;-79
2022/08/04 07:44:18;;;;;;;69.20;65.55;;;23.80;69.70;;;;;;5051273;28;20044;-79
2022/08/04 07:46:47;;;;;;;62.85;59.58;;;23.90;69.40;;;;;;5030097;28;20488;-79
2022/08/04 07:49:13;;;;;;;46.95;44.30;;;24.00;69.30;;;;;;5048048;28;20037;-79
2022/08/04 07:51:40;;;;;;;47.80;45.30;;;24.10;69.00;;;;;;5047539;28;20025;-80
2022/08/04 07:54:08;;;;;;;42.67;40.47;;;24.20;68.70;;;;;;5031063;28;20041;-79
2022/08/04 07:56:38;;;;;;;39.15;36.92;;;24.30;67.60;;;;;;5031252;28;20480;-79
2022/08/04 07:59:05;;;;;;;38.40;36.17;;;24.60;67.30;;;;;;5031293;28;20041;-79
2022/08/04 08:01:32;;;;;;;39.05;36.80;;;24.70;66.60;;;;;;5030511;28;20886;-80
2022/08/04 08:03:58;;;;;;;41.45;39.05;;;24.80;66.20;;;;;;5031159;28;20054;-80
2022/08/04 08:06:24;;;;;;;38.10;35.97;;;24.90;65.50;;;;;;5047294;28;20472;-79
2022/08/04 08:08:50;;;;;;;38.15;36.25;;;24.80;66.00;;;;;;5047319;28;20033;-79
2022/08/04 08:11:16;;;;;;;38.70;36.50;;;24.70;66.50;;;;;;5047524;28;20037;-79
2022/08/04 08:13:43;;;;;;;37.75;35.72;;;24.70;66.60;;;;;;5047406;28;20041;-80
2022/08/04 08:16:10;;;;;;;39.58;37.47;;;24.60;66.70;;;;;;5046857;28;20032;-80
2022/08/04 08:18:36;;;;;;;38.10;35.72;;;24.80;66.60;;;;;;5047514;28;20036;-80
2022/08/04 08:21:02;;;;;;;39.60;37.30;;;24.90;65.90;;;;;;5030348;28;20029;-80
2022/08/04 08:23:29;;;;;;;35.88;33.97;;;24.90;66.30;;;;;;5030571;28;20496;-80
2022/08/04 08:25:56;;;;;;;39.03;36.63;;;25.30;64.60;;;;;;5047283;28;20041;-80
2022/08/04 08:28:22;;;;;;;40.10;38.00;;;25.50;64.40;;;;;;5047289;28;20025;-80
2022/08/04 08:30:48;;;;;;;42.30;40.00;;;25.80;63.30;;;;;;5046879;28;20025;-80
2022/08/04 08:33:14;;;;;;;49.35;46.88;;;26.00;62.50;;;;;;5047251;28;20105;-80
2022/08/04 08:35:43;;;;;;;45.58;42.97;;;26.00;62.20;;;;;;5031452;28;20033;-80
2022/08/04 08:38:09;;;;;;;40.20;38.13;;;26.10;62.00;;;;;;5031171;28;20036;-80
2022/08/04 08:40:55;;;;;;;43.15;40.80;;;26.10;61.60;;;;;;5050322;28;20024;-80
2022/08/04 08:44:01;;;;;;;43.30;40.90;;;26.00;61.90;;;;;;5031090;28;20041;-80
2022/08/04 08:46:36;;;;;;;41.92;39.65;;;25.90;62.30;;;;;;5035072;28;20046;-80
2022/08/04 08:49:43;;;;;;;39.15;37.22;;;25.80;62.60;;;;;;5051189;28;20028;-80
2022/08/04 08:52:31;;;;;;;41.58;39.55;;;26.00;62.10;;;;;;5033547;28;20041;-80
2022/08/04 08:55:09;;;;;;;41.50;39.47;;;26.20;61.40;;;;;;5049835;28;20040;-80
2022/08/04 08:58:15;;;;;;;42.22;40.03;;;26.30;61.10;;;;;;5051215;28;20379;-80
2022/08/04 09:01:19;;;;;;;37.67;35.47;;;26.50;60.10;;;;;;5032898;28;20036;-80
2022/08/04 09:03:51;;;;;;;38.15;36.15;;;26.40;60.40;;;;;;5049298;28;20403;-80
2022/08/04 09:06:30;;;;;;;41.08;38.92;;;26.40;60.20;;;;;;5049485;28;20048;-80
2022/08/04 09:08:59;;;;;;;36.65;34.65;;;26.60;60.20;;;;;;5050101;28;20083;-80
2022/08/04 09:11:28;;;;;;;32.38;30.75;;;26.70;59.70;;;;;;5049593;28;20056;-80
2022/08/04 09:14:07;;;;;;;36.17;34.15;;;26.80;59.40;;;;;;5049727;28;20031;-80
2022/08/04 09:16:53;;;;;;;33.65;31.95;;;26.70;59.50;;;;;;5049361;28;20056;-80
2022/08/04 09:19:26;;;;;;;37.75;35.42;;;26.60;60.00;;;;;;5032923;28;20041;-80
2022/08/04 09:21:59;;;;;;;35.65;33.85;;;26.70;59.70;;;;;;5049094;28;20059;-80
2022/08/04 09:24:38;;;;;;;31.27;29.70;;;26.80;59.20;;;;;;5033393;28;20060;-80
2022/08/04 09:27:28;;;;;;;35.15;33.35;;;26.70;59.30;;;;;;5032676;28;20510;-80
2022/08/04 09:30:04;;;;;;;28.35;26.90;;;26.80;59.30;;;;;;5035147;28;20056;-80
2022/08/04 09:32:55;;;;;;;28.00;26.60;;;27.00;59.30;;;;;;5048553;28;20041;-80
2022/08/04 09:35:51;;;;;;;25.23;23.85;;;26.90;59.00;;;;;;5027875;28;20137;-80
2022/08/04 09:38:34;;;;;;;27.10;25.33;;;26.70;59.50;;;;;;5013151;28;20630;-80
2022/08/04 09:41:15;;;;;;;28.65;27.05;;;27.00;58.80;;;;;;4993905;28;20050;-80
2022/08/04 09:44:06;;;;;;;31.88;30.17;;;26.90;58.70;;;;;;4996853;28;20062;-79
2022/08/04 09:46:50;;;;;;;31.35;29.65;;;27.10;57.90;;;;;;5027206;28;20041;-80
2022/08/04 09:49:35;;;;;;;34.33;32.45;;;27.10;58.20;;;;;;5027208;28;20048;-80
2022/08/04 09:52:04;;;;;;;38.22;36.22;;;27.40;57.80;;;;;;5025963;28;20041;-80
2022/08/04 09:54:52;;;;;;;44.47;42.15;;;27.70;57.20;;;;;;5028267;28;20045;-80
2022/08/04 09:57:30;;;;;;;32.70;30.70;;;27.70;57.20;;;;;;5028303;28;20033;-80
2022/08/04 10:00:06;;;;;;;30.40;28.80;;;27.90;56.80;;;;;;5028015;28;20510;-80
2022/08/04 10:02:37;;;;;;;38.40;36.42;;;27.80;57.10;;;;;;5010507;28;20049;-80
2022/08/04 10:05:06;;;;;;;44.55;42.30;;;28.00;56.60;;;;;;5011006;28;20061;-80
2022/08/04 10:07:47;;;;;;;36.40;34.38;;;28.10;56.50;;;;;;5027457;28;20025;-80
2022/08/04 10:10:58;;;;;;;33.80;32.10;;;28.50;55.50;;;;;;5027820;28;20419;-80
2022/08/04 10:14:04;;;;;;;32.55;30.85;;;28.40;55.50;;;;;;5032110;28;20079;-80
2022/08/04 10:16:46;;;;;;;30.60;29.00;;;28.40;55.30;;;;;;5048087;28;20060;-80
2022/08/04 10:19:41;;;;;;;33.75;32.05;;;28.50;55.00;;;;;;5032712;28;20036;-80
2022/08/04 10:22:25;;;;;;;33.50;31.33;;;28.40;55.00;;;;;;5040598;28;20037;-80
2022/08/04 10:24:54;;;;;;;27.95;26.13;;;28.60;54.60;;;;;;5033219;28;20048;-80
2022/08/04 10:27:33;;;;;;;29.45;27.67;;;28.20;55.30;;;;;;5050147;28;20035;-80
2022/08/04 10:30:10;;;;;;;27.65;26.02;;;28.00;55.60;;;;;;5032163;28;20040;-80
2022/08/04 10:33:01;;;;;;;29.92;28.35;;;27.90;55.70;;;;;;5018029;28;20501;-80
2022/08/04 10:35:32;;;;;;;29.40;27.92;;;27.60;56.80;;;;;;5038327;28;20044;-80
2022/08/04 10:38:12;;;;;;;30.80;29.10;;;27.70;56.40;;;;;;5052847;28;20032;-80
2022/08/04 10:41:11;;;;;;;29.50;27.90;;;27.70;56.70;;;;;;5016547;28;20033;-80
2022/08/04 10:43:48;;;;;;;29.73;28.23;;;27.70;56.30;;;;;;5039395;28;20041;-80
2022/08/04 10:46:16;;;;;;;32.13;30.55;;;27.90;56.30;;;;;;5019539;28;20525;-80
2022/08/04 10:48:53;;;;;;;38.42;36.22;;;28.10;56.00;;;;;;5036104;28;20369;-80
2022/08/04 10:51:41;;;;;;;35.63;33.83;;;28.30;55.40;;;;;;5036270;28;20546;-80
2022/08/04 10:54:33;;;;;;;34.38;32.58;;;28.30;54.80;;;;;;5053700;28;20486;-80
2022/08/04 10:57:23;;;;;;;30.73;28.92;;;28.40;54.60;;;;;;5030223;28;20037;-80
2022/08/04 10:59:55;;;;;;;29.08;27.38;;;28.40;54.50;;;;;;5051929;28;20025;-80
2022/08/04 11:03:08;;;;;;;30.33;28.83;;;28.30;54.40;;;;;;5051754;28;20036;-80
2022/08/04 11:05:48;;;;;;;29.40;27.80;;;28.20;54.80;;;;;;5017951;28;20076;-80
2022/08/04 11:08:21;;;;;;;29.15;27.65;;;28.20;54.90;;;;;;5031173;28;20029;-80
2022/08/04 11:10:51;;;;;;;30.73;29.17;;;28.10;54.80;;;;;;5015139;28;20044;-80
2022/08/04 11:13:17;;;;;;;26.97;25.53;;;27.90;55.50;;;;;;4998322;28;20045;-80
2022/08/04 11:15:51;;;;;;;30.80;29.20;;;27.80;55.50;;;;;;5013999;28;20920;-80
2022/08/04 11:18:30;;;;;;;27.35;25.85;;;27.90;55.90;;;;;;5014480;28;20180;-80
2022/08/04 11:21:02;;;;;;;28.67;27.17;;;28.00;55.80;;;;;;5015549;28;20037;-80
2022/08/04 11:23:32;;;;;;;31.33;29.55;;;27.80;56.00;;;;;;5014557;28;20381;-80
2022/08/04 11:26:00;;;;;;;31.63;30.00;;;27.90;56.20;;;;;;5014640;28;20447;-80
2022/08/04 11:28:45;;;;;;;29.27;27.67;;;28.10;55.80;;;;;;5013665;28;20172;-80
2022/08/04 11:31:13;;;;;;;29.45;27.85;;;28.20;55.10;;;;;;5013104;28;20423;-80
2022/08/04 11:34:00;;;;;;;28.67;27.13;;;27.90;55.60;;;;;;5014239;28;20025;-80
2022/08/04 11:36:29;;;;;;;28.27;26.67;;;27.80;56.00;;;;;;5030618;28;20048;-80
2022/08/04 11:39:17;;;;;;;30.92;29.02;;;28.00;55.20;;;;;;5030494;28;20038;-80
2022/08/04 11:42:04;;;;;;;31.23;29.63;;;28.00;55.50;;;;;;5034635;28;20045;-80
2022/08/04 11:44:47;;;;;;;29.42;27.88;;;28.10;55.30;;;;;;5040420;28;20511;-80
2022/08/04 11:47:29;;;;;;;29.73;28.17;;;28.10;55.40;;;;;;5031609;28;20048;-80
2022/08/04 11:50:03;;;;;;;29.52;28.02;;;28.00;55.70;;;;;;5031619;28;20336;-80
2022/08/04 11:52:29;;;;;;;30.13;28.35;;;28.10;55.70;;;;;;5016027;28;20121;-80
2022/08/04 11:54:56;;;;;;;28.27;26.40;;;28.20;55.50;;;;;;5031536;28;20404;-80
2022/08/04 11:57:23;;;;;;;29.45;27.98;;;28.20;55.00;;;;;;5014262;28;20041;-80
2022/08/04 11:59:49;;;;;;;26.98;25.60;;;28.20;54.90;;;;;;5031562;28;20025;-80
2022/08/04 12:02:37;;;;;;;28.60;26.75;;;28.20;54.80;;;;;;5013578;28;20029;-80
2022/08/04 12:05:03;;;;;;;27.33;25.83;;;28.30;54.40;;;;;;5032367;28;20041;-80
2022/08/04 12:07:54;;;;;;;28.35;27.00;;;28.30;54.60;;;;;;5031014;28;20033;-80
2022/08/04 12:10:20;;;;;;;;;;;28.30;54.60;;;;;;5031281;28;20041;-80
2022/08/04 12:12:53;;;;;;;26.73;25.33;;;28.20;54.80;;;;;;5030617;28;20375;-80
2022/08/04 12:15:29;;;;;;;27.73;25.92;;;28.20;54.90;;;;;;5013935;28;20065;-80
2022/08/04 12:18:15;;;;;;;27.83;26.35;;;28.20;54.70;;;;;;5014953;28;20037;-80
2022/08/04 12:20:44;;;;;;;26.70;25.30;;;28.20;54.60;;;;;;5016461;28;20507;-80
2022/08/04 12:23:23;;;;;;;37.35;35.45;;;28.00;54.80;;;;;;5014261;28;20045;-80
2022/08/04 12:25:52;;;;;;;28.45;27.00;;;28.00;54.90;;;;;;5031264;28;20382;-80
2022/08/04 12:28:25;;;;;;;30.67;28.67;;;28.00;54.60;;;;;;5014240;28;20056;-80
2022/08/04 12:31:01;;;;;;;35.67;33.80;;;28.00;54.50;;;;;;5030214;28;20037;-80
2022/08/04 12:33:34;;;;;;;34.60;32.42;;;28.00;54.40;;;;;;5014773;28;20025;-80
2022/08/04 12:36:33;;;;;;;34.45;32.55;;;28.10;54.20;;;;;;5033887;28;20483;-80
2022/08/04 12:39:14;;;;;;;31.08;29.33;;;28.20;54.00;;;;;;5009412;28;20424;-80
2022/08/04 12:41:57;;;;;;;36.22;33.83;;;28.30;53.60;;;;;;4961714;28;20521;-80
2022/08/04 12:44:23;;;;;;;33.85;32.22;;;28.50;53.10;;;;;;4978755;28;20404;-80
2022/08/04 12:46:49;;;;;;;30.08;28.48;;;28.60;53.00;;;;;;4992266;28;20046;-80
2022/08/04 12:49:15;;;;;;;34.50;32.53;;;28.60;52.70;;;;;;5009440;28;20048;-80
2022/08/04 12:51:44;;;;;;;35.70;33.75;;;28.70;52.80;;;;;;5009237;28;20026;-80
2022/08/04 12:54:11;;;;;;;35.80;33.65;;;28.80;52.30;;;;;;5009382;28;20034;-80
2022/08/04 12:56:37;;;;;;;39.33;37.22;;;28.80;51.90;;;;;;4991169;28;20045;-80
2022/08/04 12:59:07;;;;;;;30.75;28.95;;;28.90;51.80;;;;;;5009447;28;20044;-80
2022/08/04 13:01:33;;;;;;;30.05;28.33;;;29.10;51.60;;;;;;5008442;28;20044;-80
2022/08/04 13:04:20;;;;;;;28.15;26.33;;;29.30;50.90;;;;;;5008914;28;20393;-79
2022/08/04 13:07:00;;;;;;;28.88;27.17;;;29.20;51.00;;;;;;5008698;28;20041;-79
2022/08/04 13:09:28;;;;;;;31.02;29.33;;;29.40;51.00;;;;;;5008239;28;20033;-79
2022/08/04 13:11:56;;;;;;;35.22;33.28;;;29.30;50.20;;;;;;4992589;28;20038;-79
2022/08/04 13:14:22;;;;;;;33.65;31.95;;;29.30;50.20;;;;;;5008542;28;20038;-79
2022/08/04 13:16:55;;;;;;;39.20;36.78;;;29.50;49.20;;;;;;5029559;28;20021;-79